Time;durP1;ratioP1;P1;durP2;ratioP2;P2;SDS_P1;SDS_P2;PMS_P1;PMS_P2;Temp;Humidity;BMP_temperature;BMP_pressure;BME280_temperature;BME280_humidity;BME280_pressure;Samples;Min_cycle;Max_cycle;Signal;HPM_P1;HPM_P2
2023/05/13 00:01:37;;;;;;;18.98;7.82;;;;;;;;;;5091800;28;20043;-76
2023/05/13 00:04:41;;;;;;;19.58;6.85;;;;;;;;;;5092415;28;20051;-76
2023/05/13 00:07:46;;;;;;;20.83;7.70;;;;;;;;;;5091877;28;20502;-76
2023/05/13 00:10:50;;;;;;;19.23;7.75;;;15.20;99.90;;;;;;5091915;28;20043;-76
2023/05/13 00:13:54;;;;;;;26.60;7.20;;;15.30;99.90;;;;;;5092258;28;20067;-76
2023/05/13 00:16:58;;;;;;;21.83;7.05;;;;;;;;;;5092374;28;20058;-76
2023/05/13 00:20:02;;;;;;;19.15;6.85;;;;;;;;;;5091239;28;20498;-76
2023/05/13 00:23:07;;;;;;;14.18;6.13;;;15.20;99.90;;;;;;5091941;28;20059;-76
2023/05/13 00:26:12;;;;;;;22.83;8.07;;;;;;;;;;5092075;28;20043;-76
2023/05/13 00:29:16;;;;;;;19.95;7.35;;;14.70;99.90;;;;;;5091663;28;20055;-76
2023/05/13 00:32:20;;;;;;;15.27;6.40;;;;;;;;;;5091036;28;20039;-76
2023/05/13 00:35:24;;;;;;;24.27;7.30;;;15.10;99.90;;;;;;5091592;28;20423;-76
2023/05/13 00:38:28;;;;;;;16.90;6.80;;;14.90;99.90;;;;;;5091841;28;20039;-76
2023/05/13 00:41:31;;;;;;;24.20;7.35;;;15.10;99.90;;;;;;5092530;28;20395;-76
2023/05/13 00:44:36;;;;;;;14.07;6.38;;;;;;;;;;5090627;28;20399;-76
2023/05/13 00:47:41;;;;;;;13.70;5.50;;;15.10;99.90;;;;;;5090962;28;20533;-76
2023/05/13 00:50:46;;;;;;;18.10;6.00;;;;;;;;;;5090663;28;20039;-76
2023/05/13 00:53:50;;;;;;;16.20;5.88;;;15.40;99.90;;;;;;5090681;28;20051;-76
2023/05/13 00:56:55;;;;;;;18.67;5.70;;;15.40;99.90;;;;;;5090831;28;20502;-76
2023/05/13 01:00:00;;;;;;;12.23;5.47;;;12.40;99.90;;;;;;5079144;28;20507;-76
2023/05/13 01:03:22;;;;;;;15.40;5.68;;;15.60;99.90;;;;;;5091450;28;20043;-76
2023/05/13 01:06:42;;;;;;;18.45;5.55;;;16.10;99.90;;;;;;5091500;28;20426;-76
2023/05/13 01:10:10;;;;;;;18.77;5.70;;;14.80;99.90;;;;;;5091504;28;20043;-75
2023/05/13 01:13:22;;;;;;;16.42;5.03;;;14.80;99.90;;;;;;5090329;28;20043;-76
2023/05/13 01:16:34;;;;;;;13.13;5.28;;;13.50;99.90;;;;;;5091418;28;20051;-76
2023/05/13 01:19:51;;;;;;;11.45;4.78;;;16.80;99.90;;;;;;5091270;28;20039;-76
2023/05/13 01:22:55;;;;;;;12.65;5.20;;;;;;;;;;5090555;28;20059;-76
2023/05/13 01:26:00;;;;;;;15.95;4.88;;;14.80;99.90;;;;;;5090375;28;20031;-75
2023/05/13 01:29:05;;;;;;;12.25;5.45;;;;;;;;;;5089915;28;20051;-75
2023/05/13 01:32:11;;;;;;;14.55;4.82;;;14.90;99.90;;;;;;5090910;28;20066;-75
2023/05/13 01:35:16;;;;;;;19.60;6.40;;;14.10;99.90;;;;;;5090724;28;20051;-76
2023/05/13 01:38:23;;;;;;;16.30;5.47;;;15.30;99.90;;;;;;5090002;28;20039;-76
2023/05/13 01:41:31;;;;;;;13.02;4.50;;;15.10;99.90;;;;;;5090274;28;20475;-76
2023/05/13 01:44:35;;;;;;;18.00;4.95;;;14.30;99.90;;;;;;5089892;28;20043;-76
2023/05/13 01:47:39;;;;;;;14.77;5.32;;;14.20;99.90;;;;;;5078376;28;20498;-77
2023/05/13 01:50:45;;;;;;;14.73;4.10;;;;;;;;;;5089941;28;20058;-76
2023/05/13 01:53:49;;;;;;;11.30;4.00;;;14.40;99.90;;;;;;5089874;28;20074;-77
2023/05/13 01:56:53;;;;;;;14.35;3.90;;;14.60;99.90;;;;;;5090150;28;20043;-76
2023/05/13 01:59:57;;;;;;;11.20;4.03;;;16.00;99.90;;;;;;5089747;28;20047;-76
2023/05/13 02:03:01;;;;;;;12.15;3.78;;;14.70;99.90;;;;;;5090068;28;20047;-76
2023/05/13 02:06:06;;;;;;;9.95;3.47;;;;;;;;;;5090032;28;20051;-75
2023/05/13 02:09:10;;;;;;;9.50;3.65;;;14.80;99.90;;;;;;5090880;28;20044;-76
2023/05/13 02:12:16;;;;;;;14.35;4.15;;;14.70;99.90;;;;;;5089980;28;20043;-76
2023/05/13 02:15:20;;;;;;;13.45;3.88;;;14.60;99.90;;;;;;5090366;28;20055;-76
2023/05/13 02:18:24;;;;;;;14.60;5.50;;;14.50;99.90;;;;;;5093595;28;20039;-76
2023/05/13 02:21:28;;;;;;;8.10;3.17;;;14.40;99.90;;;;;;5082072;28;20043;-76
2023/05/13 02:24:33;;;;;;;9.20;3.17;;;14.40;99.90;;;;;;5094437;28;20035;-77
2023/05/13 02:27:38;;;;;;;12.00;3.80;;;;;;;;;;5094038;28;20051;-76
2023/05/13 02:30:42;;;;;;;11.02;3.42;;;;;;;;;;5094312;28;20043;-76
2023/05/13 02:33:46;;;;;;;12.07;3.97;;;14.10;99.90;;;;;;5092978;28;20043;-76
2023/05/13 02:36:51;;;;;;;8.27;3.65;;;14.00;99.90;;;;;;5093897;28;20051;-77
2023/05/13 02:39:55;;;;;;;11.43;3.13;;;13.90;99.90;;;;;;5093260;28;20039;-77
2023/05/13 02:42:59;;;;;;;10.52;3.63;;;14.00;99.90;;;;;;5081384;28;20077;-76
2023/05/13 02:46:16;;;;;;;11.70;3.78;;;14.00;99.90;;;;;;5093201;28;20047;-76
2023/05/13 02:49:21;;;;;;;13.98;3.42;;;14.10;99.90;;;;;;5093010;28;20407;-77
2023/05/13 02:52:25;;;;;;;12.32;3.80;;;14.40;99.90;;;;;;5093194;28;20642;-77
2023/05/13 02:55:30;;;;;;;13.25;4.47;;;14.40;99.90;;;;;;5081072;28;20541;-77
2023/05/13 02:58:35;;;;;;;11.63;4.43;;;14.60;99.90;;;;;;5093043;28;20392;-77
2023/05/13 03:01:40;;;;;;;11.18;4.35;;;;;;;;;;5081171;28;20515;-77
2023/05/13 03:04:44;;;;;;;14.73;3.97;;;15.10;99.90;;;;;;5093658;28;20047;-77
2023/05/13 03:07:49;;;;;;;11.70;4.13;;;;;;;;;;5092809;28;20050;-77
2023/05/13 03:10:52;;;;;;;6.05;3.97;;;14.40;99.90;;;;;;5092751;28;20391;-77
2023/05/13 03:13:57;;;;;;;14.23;3.70;;;;;;;;;;5093080;28;20047;-77
2023/05/13 03:17:01;;;;;;;12.82;4.57;;;14.30;99.90;;;;;;5093455;28;20063;-77
2023/05/13 03:20:06;;;;;;;7.28;3.90;;;13.40;99.90;;;;;;5093321;28;20047;-77
2023/05/13 03:23:10;;;;;;;13.93;4.75;;;;;;;;;;5092001;28;20046;-77
2023/05/13 03:26:15;;;;;;;11.80;4.78;;;14.20;99.90;;;;;;5093171;28;20043;-77
2023/05/13 03:29:19;;;;;;;19.45;4.47;;;12.20;99.90;;;;;;5091722;28;20055;-77
2023/05/13 03:32:24;;;;;;;9.98;4.03;;;14.20;99.90;;;;;;5092032;28;20071;-77
2023/05/13 03:35:28;;;;;;;11.77;4.95;;;14.20;99.90;;;;;;5091956;28;20055;-76
2023/05/13 03:38:33;;;;;;;10.40;4.65;;;14.30;99.90;;;;;;5092170;28;20051;-77
2023/05/13 03:41:37;;;;;;;16.75;4.53;;;14.30;99.90;;;;;;5092210;28;20039;-77
2023/05/13 03:44:41;;;;;;;14.27;5.00;;;14.20;99.90;;;;;;5092812;28;20043;-76
2023/05/13 03:47:45;;;;;;;8.32;4.82;;;14.40;99.90;;;;;;5091862;28;20059;-77
2023/05/13 03:50:53;;;;;;;11.38;4.88;;;;;;;;;;5091981;28;20043;-77
2023/05/13 03:53:58;;;;;;;19.05;4.72;;;;;;;;;;5091742;28;20545;-77
2023/05/13 03:57:02;;;;;;;15.50;4.63;;;14.30;99.90;;;;;;5091755;28;20055;-77
2023/05/13 04:00:07;;;;;;;12.15;4.43;;;;;;;;;;5092228;28;20043;-77
2023/05/13 04:03:18;;;;;;;15.63;5.25;;;15.60;99.90;;;;;;5092599;28;20055;-77
2023/05/13 04:06:22;;;;;;;9.82;4.40;;;14.40;99.90;;;;;;5092508;28;20054;-77
2023/05/13 04:09:26;;;;;;;17.67;6.47;;;14.80;99.90;;;;;;5092206;28;20051;-77
2023/05/13 04:12:32;;;;;;;11.55;4.82;;;;;;;;;;5091534;28;20039;-77
2023/05/13 04:15:37;;;;;;;9.82;4.90;;;14.60;99.90;;;;;;5091031;28;20067;-77
2023/05/13 04:18:42;;;;;;;13.57;4.63;;;14.00;99.90;;;;;;5091290;28;20364;-77
2023/05/13 04:21:45;;;;;;;16.10;4.18;;;14.60;99.90;;;;;;5092116;28;20043;-76
2023/05/13 04:24:55;;;;;;;9.05;3.25;;;14.60;99.90;;;;;;5090860;28;20043;-76
2023/05/13 04:27:59;;;;;;;10.25;3.85;;;14.90;99.90;;;;;;5090891;28;20059;-76
2023/05/13 04:31:13;;;;;;;15.55;4.78;;;14.20;99.90;;;;;;5091285;28;20051;-77
2023/05/13 04:34:18;;;;;;;14.23;3.47;;;14.80;99.90;;;;;;5090908;28;20526;-77
2023/05/13 04:37:24;;;;;;;10.38;3.85;;;14.30;99.90;;;;;;5090926;28;20035;-77
2023/05/13 04:40:31;;;;;;;10.57;3.85;;;15.00;99.90;;;;;;5090428;28;20047;-77
2023/05/13 04:43:39;;;;;;;15.07;4.78;;;18.10;99.90;;;;;;5090754;28;20051;-77
2023/05/13 04:46:43;;;;;;;15.75;5.80;;;15.20;99.90;;;;;;5090770;28;20039;-76
2023/05/13 04:49:48;;;;;;;17.60;6.38;;;;;;;;;;5090927;28;20043;-76
2023/05/13 04:52:53;;;;;;;17.85;7.15;;;15.20;99.90;;;;;;5091283;28;20196;-76
2023/05/13 04:55:59;;;;;;;19.27;7.07;;;15.30;99.90;;;;;;5090556;28;20451;-76
2023/05/13 04:59:05;;;;;;;19.27;7.50;;;15.10;99.90;;;;;;5078873;28;20043;-76
2023/05/13 05:02:08;;;;;;;18.55;6.85;;;15.40;99.90;;;;;;5090725;28;20051;-76
2023/05/13 05:05:12;;;;;;;20.23;6.65;;;13.60;99.90;;;;;;5090467;28;20145;-76
2023/05/13 05:08:16;;;;;;;12.57;5.47;;;13.00;99.90;;;;;;5090571;28;20391;-76
2023/05/13 05:11:22;;;;;;;17.23;5.90;;;16.70;99.90;;;;;;5090167;28;20043;-76
2023/05/13 05:14:25;;;;;;;14.02;6.32;;;15.30;99.90;;;;;;5091001;28;20050;-76
2023/05/13 05:17:31;;;;;;;18.58;5.50;;;11.30;99.90;;;;;;5090869;28;20059;-77
2023/05/13 05:20:38;;;;;;;12.60;5.68;;;15.70;99.90;;;;;;5090327;28;20039;-76
2023/05/13 05:23:45;;;;;;;16.45;6.30;;;18.10;99.90;;;;;;5090041;28;20043;-77
2023/05/13 05:26:50;;;;;;;14.82;7.38;;;;;;;;;;5090184;28;20043;-77
2023/05/13 05:29:54;;;;;;;16.60;6.22;;;14.30;99.90;;;;;;5089598;28;20051;-76
2023/05/13 05:32:59;;;;;;;14.93;6.38;;;15.20;99.90;;;;;;5090023;28;20055;-64
2023/05/13 05:36:03;;;;;;;25.63;6.82;;;15.10;99.90;;;;;;5089957;28;20047;-65
2023/05/13 05:39:08;;;;;;;18.42;7.28;;;;;;;;;;5090812;28;20047;-65
2023/05/13 05:42:13;;;;;;;19.38;8.60;;;15.30;99.90;;;;;;5090030;28;20043;-65
2023/05/13 05:45:18;;;;;;;20.20;9.32;;;;;;;;;;5090917;28;20114;-65
2023/05/13 05:48:22;;;;;;;17.70;7.50;;;15.20;99.90;;;;;;5090261;28;20086;-65
2023/05/13 05:51:26;;;;;;;15.73;6.28;;;15.30;99.90;;;;;;5092827;28;20051;-62
2023/05/13 05:54:31;;;;;;;16.20;5.57;;;15.20;99.90;;;;;;5094031;28;20047;-64
2023/05/13 05:57:36;;;;;;;16.60;5.75;;;15.60;99.90;;;;;;5094374;28;20043;-64
2023/05/13 06:00:40;;;;;;;16.00;6.05;;;15.40;99.90;;;;;;5094910;28;20043;-64
2023/05/13 06:03:44;;;;;;;14.82;4.50;;;15.40;99.90;;;;;;5094673;28;20506;-64
2023/05/13 06:06:48;;;;;;;19.33;6.22;;;16.40;99.90;;;;;;5095244;28;20054;-65
2023/05/13 06:09:54;;;;;;;17.52;5.53;;;15.50;99.90;;;;;;5095244;28;20407;-64
2023/05/13 06:13:01;;;;;;;14.80;5.05;;;15.40;99.90;;;;;;5094028;28;20051;-67
2023/05/13 06:16:09;;;;;;;16.15;5.47;;;15.10;99.90;;;;;;5093643;28;20059;-67
2023/05/13 06:19:15;;;;;;;16.48;6.18;;;15.50;99.90;;;;;;5094439;28;20047;-65
2023/05/13 06:22:19;;;;;;;21.52;5.80;;;15.50;99.90;;;;;;5094328;28;20051;-65
2023/05/13 06:25:23;;;;;;;27.58;6.10;;;17.60;99.90;;;;;;5094111;28;20039;-64
2023/05/13 06:28:27;;;;;;;14.60;5.78;;;15.20;99.90;;;;;;5092610;28;20051;-67
2023/05/13 06:31:31;;;;;;;15.85;6.63;;;;;;;;;;5094044;28;20039;-65
2023/05/13 06:34:35;;;;;;;14.02;6.55;;;15.40;99.90;;;;;;5093547;28;20051;-65
2023/05/13 06:37:39;;;;;;;15.02;6.10;;;15.30;99.90;;;;;;5093845;28;20047;-65
2023/05/13 06:40:44;;;;;;;25.75;7.07;;;15.30;99.90;;;;;;5093651;28;20044;-64
2023/05/13 06:43:49;;;;;;;18.20;7.22;;;15.30;99.90;;;;;;5093008;28;20051;-65
2023/05/13 06:46:58;;;;;;;21.70;7.07;;;15.10;99.90;;;;;;5093060;28;20039;-65
2023/05/13 06:50:03;;;;;;;14.50;6.03;;;16.60;99.90;;;;;;5092821;28;20054;-65
2023/05/13 06:53:10;;;;;;;22.50;7.47;;;15.00;99.90;;;;;;5092645;28;20031;-64
2023/05/13 06:56:16;;;;;;;14.68;6.75;;;16.80;99.90;;;;;;5093512;28;20071;-66
2023/05/13 06:59:21;;;;;;;19.88;7.10;;;15.60;99.90;;;;;;5093214;28;20058;-65
2023/05/13 07:02:25;;;;;;;20.80;7.20;;;15.50;99.90;;;;;;5092226;28;20051;-64
2023/05/13 07:05:31;;;;;;;20.55;7.50;;;13.40;99.90;;;;;;5092860;28;20527;-65
2023/05/13 07:08:35;;;;;;;18.75;7.25;;;15.40;99.90;;;;;;5093384;28;20043;-65
2023/05/13 07:11:39;;;;;;;19.42;6.72;;;15.20;99.90;;;;;;5093570;28;20059;-65
2023/05/13 07:14:44;;;;;;;16.45;6.75;;;15.40;99.90;;;;;;5093267;28;20055;-64
2023/05/13 07:17:48;;;;;;;16.20;6.40;;;15.60;99.90;;;;;;5093184;28;20038;-65
2023/05/13 07:20:52;;;;;;;16.60;6.88;;;11.90;99.90;;;;;;5093154;28;20043;-65
2023/05/13 07:23:56;;;;;;;14.77;7.18;;;15.40;99.90;;;;;;5092772;28;20110;-65
2023/05/13 07:27:00;;;;;;;29.67;9.63;;;15.50;99.90;;;;;;5093090;28;20055;-64
2023/05/13 07:30:05;;;;;;;20.73;8.85;;;15.40;99.90;;;;;;5092899;28;20503;-65
2023/05/13 07:33:09;;;;;;;17.90;7.80;;;15.30;99.90;;;;;;5092998;28;20054;-65
2023/05/13 07:36:13;;;;;;;23.67;12.55;;;16.00;99.90;;;;;;5092860;28;20058;-65
2023/05/13 07:39:17;;;;;;;26.33;10.43;;;15.20;99.90;;;;;;5092921;28;20043;-65
2023/05/13 07:42:21;;;;;;;18.35;9.02;;;;;;;;;;5092841;28;20051;-63
2023/05/13 07:45:28;;;;;;;22.23;8.65;;;14.70;99.90;;;;;;5092500;28;20043;-65
2023/05/13 07:48:32;;;;;;;18.13;8.85;;;14.90;99.90;;;;;;5092467;28;20487;-65
2023/05/13 07:51:37;;;;;;;24.60;8.98;;;;;;;;;;5092587;28;20055;-65
2023/05/13 07:54:44;;;;;;;16.38;7.95;;;;;;;;;;5092435;28;20055;-66
2023/05/13 07:57:49;;;;;;;24.00;8.77;;;;;;;;;;5092476;28;20054;-66
2023/05/13 08:00:53;;;;;;;17.75;8.40;;;14.90;99.90;;;;;;5092552;28;20375;-64
2023/05/13 08:03:57;;;;;;;24.45;7.90;;;;;;;;;;5092380;28;20047;-66
2023/05/13 08:07:01;;;;;;;24.20;8.88;;;15.20;99.90;;;;;;5092229;28;20097;-65
2023/05/13 08:10:06;;;;;;;16.58;9.27;;;15.00;99.90;;;;;;5092371;28;20051;-66
2023/05/13 08:13:10;;;;;;;23.50;11.30;;;14.80;99.90;;;;;;5092017;28;20502;-65
2023/05/13 08:16:14;;;;;;;23.73;11.65;;;14.40;99.90;;;;;;5091697;28;20055;-63
2023/05/13 08:19:18;;;;;;;19.13;10.75;;;15.30;99.90;;;;;;5091878;28;20043;-65
2023/05/13 08:22:22;;;;;;;18.35;9.32;;;15.30;99.90;;;;;;5091963;28;20047;-63
2023/05/13 08:25:27;;;;;;;19.30;9.02;;;;;;;;;;5092088;28;20055;-63
2023/05/13 08:28:31;;;;;;;17.67;8.32;;;15.10;99.90;;;;;;5091340;28;20054;-64
2023/05/13 08:31:35;;;;;;;15.40;9.20;;;16.40;99.90;;;;;;5091829;28;20652;-64
2023/05/13 08:34:39;;;;;;;18.95;8.90;;;15.40;99.90;;;;;;5090782;28;20059;-64
2023/05/13 08:37:42;;;;;;;15.48;7.82;;;14.60;99.90;;;;;;5091755;28;20067;-63
2023/05/13 08:40:50;;;;;;;18.77;7.95;;;;;;;;;;5092033;28;20396;-65
2023/05/13 08:43:56;;;;;;;18.13;8.50;;;15.50;99.90;;;;;;5091330;28;20043;-65
2023/05/13 08:47:10;;;;;;;16.80;8.50;;;15.70;99.90;;;;;;5091784;28;20051;-65
2023/05/13 08:50:15;;;;;;;20.05;8.68;;;15.80;99.90;;;;;;5091574;28;20043;-62
2023/05/13 08:53:25;;;;;;;16.95;8.13;;;15.80;99.90;;;;;;5090978;28;20047;-66
2023/05/13 08:56:28;;;;;;;18.15;9.45;;;15.80;99.90;;;;;;5091220;28;20055;-65
2023/05/13 08:59:32;;;;;;;18.10;8.45;;;15.90;99.90;;;;;;5091589;28;20063;-66
2023/05/13 09:02:37;;;;;;;17.25;8.85;;;15.90;99.90;;;;;;5091464;28;20047;-64
2023/05/13 09:05:43;;;;;;;16.70;8.82;;;16.00;99.90;;;;;;5090999;28;20063;-64
2023/05/13 09:08:46;;;;;;;18.20;8.27;;;16.10;99.90;;;;;;5091151;28;20051;-64
2023/05/13 09:11:53;;;;;;;19.25;9.23;;;16.10;99.90;;;;;;5091160;28;20047;-63
2023/05/13 09:15:00;;;;;;;15.98;8.20;;;16.10;99.90;;;;;;5090731;28;20043;-63
2023/05/13 09:18:08;;;;;;;15.82;9.35;;;16.10;99.90;;;;;;5090958;28;20518;-63
2023/05/13 09:21:31;;;;;;;14.13;8.82;;;16.10;99.90;;;;;;5091079;28;20392;-63
2023/05/13 09:24:35;;;;;;;14.40;7.55;;;16.10;99.90;;;;;;5090330;28;20148;-63
2023/05/13 09:27:41;;;;;;;14.27;7.10;;;16.10;99.90;;;;;;5090730;28;20054;-63
2023/05/13 09:30:54;;;;;;;12.82;6.88;;;16.40;99.90;;;;;;5090835;28;20047;-63
2023/05/13 09:33:58;;;;;;;16.05;7.78;;;16.70;99.90;;;;;;5090539;28;20164;-63
2023/05/13 09:37:04;;;;;;;12.27;7.82;;;16.70;99.90;;;;;;5090292;28;20067;-64
2023/05/13 09:40:12;;;;;;;16.30;8.25;;;16.90;99.90;;;;;;5090807;28;20502;-63
2023/05/13 09:43:40;;;;;;;18.83;8.10;;;16.90;99.90;;;;;;5090284;28;20051;-63
2023/05/13 09:46:45;;;;;;;13.02;7.65;;;17.00;99.90;;;;;;5089320;28;20036;-63
2023/05/13 09:49:55;;;;;;;16.48;8.40;;;17.20;99.90;;;;;;5090245;28;20047;-63
2023/05/13 09:53:10;;;;;;;19.90;8.70;;;17.30;99.90;;;;;;5089654;28;20047;-64
2023/05/13 09:56:21;;;;;;;16.05;7.43;;;17.50;99.90;;;;;;5089543;28;20051;-63
2023/05/13 09:59:25;;;;;;;14.30;6.90;;;17.70;99.90;;;;;;5090763;28;20054;-64
2023/05/13 10:02:33;;;;;;;12.20;6.95;;;17.80;99.90;;;;;;5090551;28;20059;-63
2023/05/13 10:05:39;;;;;;;12.30;6.40;;;17.60;99.90;;;;;;5090493;28;20043;-64
2023/05/13 10:08:47;;;;;;;13.48;6.20;;;18.00;99.90;;;;;;5090843;28;20039;-64
2023/05/13 10:11:52;;;;;;;10.43;5.50;;;18.00;99.90;;;;;;5089263;28;20075;-64
2023/05/13 10:14:57;;;;;;;15.45;6.55;;;18.10;99.90;;;;;;5088500;28;20043;-63
2023/05/13 10:18:04;;;;;;;10.57;5.00;;;18.10;99.90;;;;;;5088598;28;20051;-63
2023/05/13 10:21:08;;;;;;;11.95;5.32;;;18.20;99.90;;;;;;5089512;28;20066;-64
2023/05/13 10:24:15;;;;;;;12.63;4.25;;;18.40;99.90;;;;;;5090146;28;20059;-63
2023/05/13 10:27:21;;;;;;;7.03;3.90;;;18.60;99.90;;;;;;5089780;28;20039;-63
2023/05/13 10:30:26;;;;;;;9.68;3.88;;;18.80;99.90;;;;;;5090326;28;20051;-63
2023/05/13 10:33:30;;;;;;;11.25;4.00;;;19.00;99.90;;;;;;5089897;28;20043;-64
2023/05/13 10:36:46;;;;;;;9.00;3.00;;;19.20;99.90;;;;;;5089887;28;20055;-63
2023/05/13 10:39:50;;;;;;;9.93;2.83;;;19.50;98.60;;;;;;5093694;28;20051;-63
2023/05/13 10:43:18;;;;;;;12.20;3.13;;;19.60;98.10;;;;;;5094129;28;20035;-63
2023/05/13 10:46:22;;;;;;;11.63;3.13;;;19.70;98.40;;;;;;5093883;28;20043;-64
2023/05/13 10:49:33;;;;;;;9.40;2.70;;;19.70;97.40;;;;;;5093360;28;20418;-64
2023/05/13 10:52:53;;;;;;;5.97;2.08;;;19.80;97.00;;;;;;5093386;28;20510;-63
2023/05/13 10:55:58;;;;;;;5.25;2.20;;;19.90;95.90;;;;;;5093021;28;20051;-63
2023/05/13 10:59:05;;;;;;;7.45;3.03;;;20.00;93.50;;;;;;5092332;28;20490;-64
2023/05/13 11:02:23;;;;;;;9.93;3.70;;;20.20;94.30;;;;;;5093091;28;20130;-64
2023/05/13 11:05:27;;;;;;;8.88;3.35;;;20.20;94.60;;;;;;5093545;28;20043;-63
2023/05/13 11:08:48;;;;;;;8.25;3.30;;;20.20;94.60;;;;;;5093409;28;20047;-63
2023/05/13 11:11:53;;;;;;;7.05;3.45;;;20.20;94.70;;;;;;5093353;28;20047;-63
2023/05/13 11:14:57;;;;;;;8.02;3.15;;;20.20;94.00;;;;;;5093084;28;20043;-62
2023/05/13 11:18:01;;;;;;;8.95;3.30;;;20.20;94.40;;;;;;5093235;28;20043;-63
2023/05/13 11:21:07;;;;;;;7.75;3.10;;;20.10;94.80;;;;;;5093113;28;20047;-63
2023/05/13 11:24:17;;;;;;;7.18;2.50;;;20.10;95.00;;;;;;5093192;28;20044;-63
2023/05/13 11:27:22;;;;;;;6.78;2.60;;;20.00;94.00;;;;;;5092751;28;20494;-64
2023/05/13 11:30:26;;;;;;;7.20;2.20;;;20.00;94.20;;;;;;5092950;28;20051;-63
2023/05/13 11:34:06;;;;;;;9.98;2.30;;;20.00;93.30;;;;;;5092746;28;20039;-63
2023/05/13 11:37:10;;;;;;;6.35;1.90;;;20.00;93.90;;;;;;5092710;28;20063;-63
2023/05/13 11:40:24;;;;;;;7.28;2.13;;;19.90;93.80;;;;;;5093081;28;20126;-63
2023/05/13 11:43:29;;;;;;;7.03;1.92;;;19.90;93.90;;;;;;5092472;28;20360;-64
2023/05/13 11:46:35;;;;;;;5.43;2.33;;;19.80;94.30;;;;;;5092801;28;20043;-64
2023/05/13 11:49:44;;;;;;;5.63;2.03;;;19.70;94.50;;;;;;5092663;28;20046;-62
2023/05/13 11:52:53;;;;;;;5.43;2.55;;;19.60;94.90;;;;;;5092603;28;20043;-63
2023/05/13 11:56:09;;;;;;;7.00;2.47;;;19.50;94.40;;;;;;5092168;28;20110;-63
2023/05/13 11:59:19;;;;;;;5.82;2.25;;;19.50;95.10;;;;;;5092657;28;20042;-63
2023/05/13 12:02:26;;;;;;;9.80;2.63;;;19.40;95.90;;;;;;5092387;28;20055;-64
2023/05/13 12:05:31;;;;;;;7.13;2.80;;;19.30;96.40;;;;;;5092320;28;20407;-63
2023/05/13 12:08:41;;;;;;;3.88;1.83;;;19.20;96.90;;;;;;5092385;28;20376;-63
2023/05/13 12:11:54;;;;;;;6.70;1.95;;;19.10;97.00;;;;;;5092553;28;20039;-63
2023/05/13 12:15:02;;;;;;;7.22;2.35;;;19.00;97.00;;;;;;5092212;28;20047;-63
2023/05/13 12:18:07;;;;;;;6.43;2.20;;;18.90;97.90;;;;;;5092163;28;20059;-63
2023/05/13 12:21:20;;;;;;;8.00;2.40;;;18.80;98.60;;;;;;5092226;28;20502;-65
2023/05/13 12:24:24;;;;;;;8.48;3.03;;;18.70;99.20;;;;;;5092096;28;20043;-63
2023/05/13 12:27:28;;;;;;;7.53;2.22;;;18.60;99.80;;;;;;5091063;28;20456;-64
2023/05/13 12:30:37;;;;;;;8.07;3.08;;;18.50;99.90;;;;;;5091761;28;20047;-63
2023/05/13 12:33:43;;;;;;;11.32;2.75;;;18.40;99.90;;;;;;5090493;28;20043;-63
2023/05/13 12:36:47;;;;;;;9.45;2.83;;;18.20;99.90;;;;;;5091799;28;20084;-63
2023/05/13 12:40:08;;;;;;;10.45;2.92;;;18.10;99.90;;;;;;5091320;28;20039;-63
2023/05/13 12:43:14;;;;;;;13.18;2.95;;;18.00;99.90;;;;;;5091712;28;20391;-63
2023/05/13 12:46:19;;;;;;;14.30;3.15;;;17.90;99.90;;;;;;5090670;28;20051;-63
2023/05/13 12:49:23;;;;;;;10.48;3.55;;;17.90;99.90;;;;;;5091573;28;20388;-63
2023/05/13 12:52:27;;;;;;;8.27;3.30;;;17.80;99.90;;;;;;5091516;28;20051;-63
2023/05/13 12:55:32;;;;;;;11.38;4.95;;;17.70;99.90;;;;;;5091369;28;20047;-63
2023/05/13 12:58:36;;;;;;;104.90;49.88;;;17.50;99.90;;;;;;5091808;28;20051;-63
2023/05/13 13:01:48;;;;;;;13.63;3.90;;;17.50;99.90;;;;;;5090512;28;20404;-64
2023/05/13 13:04:52;;;;;;;46.10;24.45;;;17.40;99.90;;;;;;5091237;28;20047;-64
2023/05/13 13:07:56;;;;;;;62.45;27.42;;;17.40;99.90;;;;;;5091681;28;20062;-64
2023/05/13 13:11:03;;;;;;;14.63;4.80;;;17.40;99.90;;;;;;5090706;28;20088;-64
2023/05/13 13:14:07;;;;;;;12.52;4.43;;;17.40;99.90;;;;;;5090546;28;20039;-63
2023/05/13 13:17:11;;;;;;;9.30;4.32;;;17.50;99.90;;;;;;5090589;28;20051;-64
2023/05/13 13:20:16;;;;;;;13.20;4.90;;;17.50;99.90;;;;;;5091075;28;20502;-63
2023/05/13 13:23:20;;;;;;;12.88;4.85;;;17.50;99.90;;;;;;5090041;28;20047;-63
2023/05/13 13:26:25;;;;;;;12.20;4.63;;;17.40;99.90;;;;;;5091152;28;20141;-63
2023/05/13 13:29:29;;;;;;;10.43;4.57;;;17.30;99.90;;;;;;5051046;28;20063;-64
2023/05/13 13:32:34;;;;;;;13.55;4.80;;;17.20;99.90;;;;;;5050806;28;20052;-64
2023/05/13 13:35:43;;;;;;;9.55;4.35;;;17.20;99.90;;;;;;5050790;28;20047;-63
2023/05/13 13:38:47;;;;;;;13.32;4.70;;;17.10;99.90;;;;;;5050321;28;20064;-63
2023/05/13 13:41:51;;;;;;;11.60;5.10;;;17.10;99.90;;;;;;5051023;28;20098;-63
2023/05/13 13:44:55;;;;;;;14.07;4.80;;;17.10;99.90;;;;;;5051070;28;20056;-63
2023/05/13 13:47:59;;;;;;;7.88;3.83;;;17.00;99.90;;;;;;5049841;28;20040;-64
2023/05/13 13:51:04;;;;;;;11.32;4.97;;;17.10;99.90;;;;;;5050897;28;20052;-63
2023/05/13 13:54:10;;;;;;;6.60;4.38;;;17.10;99.90;;;;;;5050587;28;20389;-63
2023/05/13 13:57:14;;;;;;;21.20;10.50;;;17.10;99.90;;;;;;5050434;28;20056;-63
2023/05/13 14:00:18;;;;;;;12.02;6.57;;;17.10;99.90;;;;;;5050731;28;20036;-63
2023/05/13 14:03:22;;;;;;;11.90;5.53;;;17.10;99.90;;;;;;5050583;28;20052;-62
2023/05/13 14:06:26;;;;;;;14.25;5.63;;;17.10;99.90;;;;;;5050465;28;20048;-62
2023/05/13 14:09:31;;;;;;;13.93;6.22;;;17.00;99.90;;;;;;5050257;28;20048;-62
2023/05/13 14:12:36;;;;;;;15.13;6.72;;;17.10;99.90;;;;;;5051138;28;20039;-62
2023/05/13 14:15:43;;;;;;;13.23;6.03;;;17.10;99.90;;;;;;5053982;28;20044;-62
2023/05/13 14:18:47;;;;;;;19.02;6.53;;;17.10;99.90;;;;;;5054027;28;20040;-62
2023/05/13 14:21:51;;;;;;;12.57;6.82;;;17.10;99.90;;;;;;5053849;28;20535;-62
2023/05/13 14:24:55;;;;;;;13.95;6.97;;;17.10;99.90;;;;;;5053883;28;20047;-62
2023/05/13 14:27:59;;;;;;;13.05;6.13;;;17.10;99.90;;;;;;5069966;28;20055;-62
2023/05/13 14:31:03;;;;;;;12.38;7.25;;;17.10;99.90;;;;;;5094140;28;20364;-62
2023/05/13 14:34:07;;;;;;;11.75;6.95;;;17.10;99.90;;;;;;5093185;28;20059;-61
2023/05/13 14:37:11;;;;;;;17.08;7.70;;;17.10;99.90;;;;;;5093637;28;20075;-62
2023/05/13 14:40:15;;;;;;;15.65;7.30;;;17.10;99.90;;;;;;5093541;28;20396;-62
2023/05/13 14:43:19;;;;;;;17.42;6.93;;;17.10;99.90;;;;;;5093511;28;20043;-63
2023/05/13 14:46:23;;;;;;;17.35;7.15;;;17.10;99.90;;;;;;5093852;28;20055;-63
2023/05/13 14:49:29;;;;;;;18.90;7.75;;;17.00;99.90;;;;;;5093966;28;20392;-62
2023/05/13 14:52:36;;;;;;;13.82;7.30;;;16.90;99.90;;;;;;5092837;28;20054;-63
2023/05/13 14:55:39;;;;;;;12.65;6.43;;;17.00;99.90;;;;;;5093477;28;20047;-62
2023/05/13 14:58:43;;;;;;;10.48;6.70;;;17.00;99.90;;;;;;5092698;28;20043;-63
2023/05/13 15:01:47;;;;;;;16.10;7.20;;;16.90;99.90;;;;;;5093610;28;20039;-63
2023/05/13 15:04:51;;;;;;;11.50;7.05;;;16.90;99.90;;;;;;5093394;28;20043;-63
2023/05/13 15:07:56;;;;;;;14.63;7.47;;;16.90;99.90;;;;;;5093613;28;20114;-63
2023/05/13 15:11:01;;;;;;;17.77;7.95;;;16.70;99.90;;;;;;5093303;28;20058;-63
2023/05/13 15:14:05;;;;;;;15.65;7.47;;;16.90;99.90;;;;;;5093005;28;20498;-63
2023/05/13 15:17:10;;;;;;;17.42;7.20;;;16.80;99.90;;;;;;5093076;28;20054;-63
2023/05/13 15:20:14;;;;;;;15.55;7.65;;;16.80;99.90;;;;;;5093110;28;20043;-63
2023/05/13 15:23:18;;;;;;;11.55;6.15;;;16.90;99.90;;;;;;5092893;28;20114;-63
2023/05/13 15:26:22;;;;;;;10.95;6.60;;;17.00;99.90;;;;;;5093383;28;20388;-63
2023/05/13 15:29:26;;;;;;;12.82;5.68;;;17.10;99.90;;;;;;5093282;28;20055;-63
2023/05/13 15:32:30;;;;;;;12.02;6.30;;;16.90;99.90;;;;;;5093136;28;20039;-63
2023/05/13 15:35:35;;;;;;;13.23;5.60;;;17.00;99.90;;;;;;5092775;28;20640;-63
2023/05/13 15:38:42;;;;;;;10.43;6.10;;;17.00;99.90;;;;;;5092876;28;20071;-63
2023/05/13 15:41:49;;;;;;;14.43;6.25;;;16.80;99.90;;;;;;5092741;28;20043;-63
2023/05/13 15:44:53;;;;;;;9.93;6.20;;;16.90;99.90;;;;;;5092963;28;20054;-63
2023/05/13 15:47:57;;;;;;;12.60;5.82;;;17.10;99.90;;;;;;5092469;28;20047;-62
2023/05/13 15:51:05;;;;;;;11.80;5.40;;;17.00;99.90;;;;;;5092350;28;20077;-63
2023/05/13 15:54:09;;;;;;;12.82;6.20;;;13.30;99.90;;;;;;5092392;28;20391;-63
2023/05/13 15:57:13;;;;;;;9.60;5.75;;;16.90;99.90;;;;;;5092220;28;20047;-63
2023/05/13 16:00:18;;;;;;;12.10;5.72;;;17.00;99.90;;;;;;5091840;28;20043;-63
2023/05/13 16:03:22;;;;;;;12.57;5.55;;;16.90;99.90;;;;;;5091709;28;20043;-63
2023/05/13 16:06:28;;;;;;;9.98;5.25;;;17.00;99.90;;;;;;5092106;28;20055;-64
2023/05/13 16:09:32;;;;;;;9.25;5.32;;;17.00;99.90;;;;;;5091807;28;20046;-63
2023/05/13 16:12:39;;;;;;;11.35;5.35;;;17.00;99.90;;;;;;5091567;28;20051;-63